createdAt,value
2017-01-21T00:00:39.847Z,0
2017-01-21T00:01:20.321Z,0
2017-01-21T00:02:00.801Z,0
2017-01-21T00:02:41.263Z,0
2017-01-21T00:03:21.767Z,0
2017-01-21T00:04:02.285Z,0
2017-01-21T00:04:42.739Z,0
2017-01-21T00:05:23.209Z,0
2017-01-21T00:06:03.730Z,0
2017-01-21T00:06:44.219Z,0
2017-01-21T00:07:24.743Z,0
2017-01-21T00:08:05.242Z,0
2017-01-21T00:08:45.769Z,0
2017-01-21T00:09:26.281Z,0
2017-01-21T00:10:06.756Z,0
2017-01-21T00:10:47.304Z,0
2017-01-21T00:11:27.807Z,0
2017-01-21T00:12:08.304Z,0
2017-01-21T00:12:48.812Z,0
2017-01-21T00:13:29.273Z,0
2017-01-21T00:14:09.724Z,0
2017-01-21T00:14:50.252Z,0
2017-01-21T00:15:30.740Z,0
2017-01-21T00:16:11.228Z,0
2017-01-21T00:16:51.727Z,0
2017-01-21T00:17:32.217Z,0
2017-01-21T00:18:12.713Z,0
2017-01-21T00:18:53.255Z,0
2017-01-21T00:19:33.735Z,0
2017-01-21T00:20:14.366Z,0
2017-01-21T00:20:54.907Z,0
2017-01-21T00:21:35.312Z,0
2017-01-21T00:22:15.802Z,0
2017-01-21T00:22:56.285Z,0
2017-01-21T00:23:36.746Z,0
2017-01-21T00:24:17.234Z,0
2017-01-21T00:24:57.896Z,0
2017-01-21T00:25:38.358Z,0
2017-01-21T00:26:18.847Z,0
2017-01-21T00:26:59.335Z,0
2017-01-21T00:27:39.846Z,0
2017-01-21T00:28:20.305Z,0
2017-01-21T00:29:00.834Z,0
2017-01-21T00:29:41.307Z,0
2017-01-21T00:30:21.798Z,0
2017-01-21T00:31:02.298Z,0
2017-01-21T00:31:42.775Z,0
2017-01-21T00:32:23.270Z,0
2017-01-21T00:33:03.745Z,0
2017-01-21T00:33:44.259Z,0
2017-01-21T00:34:24.744Z,0
2017-01-21T00:35:05.247Z,0
2017-01-21T00:35:45.733Z,0
2017-01-21T00:36:26.242Z,0
2017-01-21T00:37:06.742Z,0
2017-01-21T00:37:47.196Z,0
2017-01-21T00:38:27.692Z,0
2017-01-21T00:39:08.166Z,0
2017-01-21T00:39:48.704Z,0
2017-01-21T00:40:29.237Z,0
2017-01-21T00:41:09.709Z,0
2017-01-21T00:41:50.267Z,0
2017-01-21T00:42:30.739Z,0
2017-01-21T00:43:11.265Z,0
2017-01-21T00:43:51.712Z,0
2017-01-21T00:44:32.245Z,0
2017-01-21T00:45:12.731Z,0
2017-01-21T00:45:53.246Z,0
2017-01-21T00:46:33.740Z,0
2017-01-21T00:47:14.260Z,0
2017-01-21T00:47:54.765Z,0
2017-01-21T00:48:35.257Z,0
2017-01-21T00:49:15.769Z,0
2017-01-21T00:49:56.272Z,0
2017-01-21T00:50:36.756Z,0
2017-01-21T00:51:17.282Z,0
2017-01-21T00:51:57.776Z,0
2017-01-21T00:52:38.283Z,0
2017-01-21T00:53:18.856Z,0
2017-01-21T00:53:59.355Z,0
2017-01-21T00:54:39.813Z,0
2017-01-21T00:55:20.322Z,0
2017-01-21T00:56:00.823Z,0
2017-01-21T00:56:41.304Z,0
2017-01-21T00:57:21.862Z,0
2017-01-21T00:58:02.254Z,0
2017-01-21T00:58:42.772Z,0
2017-01-21T00:59:23.271Z,0
2017-01-21T01:00:03.792Z,0
2017-01-21T01:00:44.340Z,0
2017-01-21T01:01:24.804Z,0
2017-01-21T01:02:05.297Z,0
2017-01-21T01:02:45.868Z,0
2017-01-21T01:03:26.352Z,0
2017-01-21T01:04:06.869Z,0
2017-01-21T01:04:47.324Z,0
2017-01-21T01:05:27.863Z,0
2017-01-21T01:06:08.297Z,0
2017-01-21T01:06:48.785Z,0
2017-01-21T01:07:29.286Z,0
2017-01-21T01:08:09.779Z,0
2017-01-21T01:08:50.329Z,0
2017-01-21T01:09:30.758Z,0
2017-01-21T01:10:11.276Z,0
2017-01-21T01:10:51.769Z,0
2017-01-21T01:11:32.276Z,0
2017-01-21T01:12:12.752Z,0
2017-01-21T01:12:53.259Z,0
2017-01-21T01:13:33.743Z,0
2017-01-21T01:14:14.248Z,0
2017-01-21T01:14:54.893Z,0
2017-01-21T01:15:35.343Z,0
2017-01-21T01:16:15.868Z,0
2017-01-21T01:16:56.357Z,0
2017-01-21T01:17:36.934Z,0
2017-01-21T01:18:17.347Z,0
2017-01-21T01:18:57.851Z,0
2017-01-21T01:19:38.335Z,0
2017-01-21T01:20:18.850Z,0
2017-01-21T01:20:59.320Z,0
2017-01-21T01:21:39.829Z,0
2017-01-21T01:22:20.337Z,0
2017-01-21T01:23:00.803Z,0
2017-01-21T01:23:41.333Z,0
2017-01-21T01:24:21.831Z,0
2017-01-21T01:25:02.351Z,0
2017-01-21T01:25:42.885Z,0
2017-01-21T01:26:23.335Z,0
2017-01-21T01:27:03.868Z,0
2017-01-21T01:27:44.337Z,0
2017-01-21T01:28:24.813Z,0
2017-01-21T01:29:05.342Z,0
2017-01-21T01:29:45.836Z,0
2017-01-21T01:30:26.313Z,0
2017-01-21T01:31:06.758Z,0
2017-01-21T01:31:47.257Z,0
2017-01-21T01:32:27.792Z,0
2017-01-21T01:33:08.298Z,0
2017-01-21T01:33:48.809Z,0
2017-01-21T01:34:29.291Z,0
2017-01-21T01:35:09.832Z,0
2017-01-21T01:35:50.327Z,0
2017-01-21T01:36:30.807Z,0
2017-01-21T01:37:11.302Z,0
2017-01-21T01:37:51.851Z,0
2017-01-21T01:38:32.304Z,0
2017-01-21T01:39:12.828Z,0
2017-01-21T01:39:53.304Z,0
2017-01-21T01:40:33.784Z,0
2017-01-21T01:41:14.276Z,0
2017-01-21T01:41:54.764Z,0
2017-01-21T01:42:35.270Z,0
2017-01-21T01:43:15.809Z,0
2017-01-21T01:43:56.267Z,0
2017-01-21T01:44:38.700Z,0
2017-01-21T01:45:19.142Z,0
2017-01-21T01:45:59.716Z,0
2017-01-21T01:46:40.179Z,0
2017-01-21T01:47:20.673Z,0
2017-01-21T01:48:01.179Z,0
2017-01-21T01:48:41.673Z,0
2017-01-21T01:49:22.139Z,0
2017-01-21T01:50:02.650Z,0
2017-01-21T01:50:43.159Z,0
2017-01-21T01:51:23.636Z,0
2017-01-21T01:52:04.110Z,0
2017-01-21T01:52:44.608Z,0
2017-01-21T01:53:25.074Z,0
2017-01-21T01:54:05.582Z,0
2017-01-21T01:54:46.083Z,0
2017-01-21T01:55:26.575Z,0
2017-01-21T01:56:07.060Z,0
2017-01-21T01:56:47.555Z,0
2017-01-21T01:57:28.019Z,0
2017-01-21T01:58:08.532Z,0
2017-01-21T01:58:49.021Z,0
2017-01-21T01:59:29.526Z,0
2017-01-21T02:00:10.008Z,0
2017-01-21T02:00:50.535Z,0
2017-01-21T02:01:31.084Z,0
2017-01-21T02:02:11.576Z,0
2017-01-21T02:02:52.072Z,0
2017-01-21T02:03:32.586Z,0
2017-01-21T02:04:13.088Z,0
2017-01-21T02:04:53.587Z,0
2017-01-21T02:05:34.121Z,0
2017-01-21T02:06:14.665Z,0
2017-01-21T02:06:55.119Z,0
2017-01-21T02:07:35.665Z,0
2017-01-21T02:08:16.148Z,0
2017-01-21T02:08:56.665Z,0
2017-01-21T02:09:37.193Z,0
2017-01-21T02:10:17.677Z,0
2017-01-21T02:10:58.492Z,0
2017-01-21T02:11:39.011Z,0
2017-01-21T02:12:19.533Z,0
2017-01-21T02:13:00.020Z,0
2017-01-21T02:13:40.493Z,0
2017-01-21T02:14:20.996Z,0
2017-01-21T02:15:01.523Z,0
2017-01-21T02:15:42.023Z,0
2017-01-21T02:16:22.557Z,0
2017-01-21T02:17:03.017Z,0
2017-01-21T02:17:43.511Z,0
2017-01-21T02:18:24.013Z,0
2017-01-21T02:19:04.489Z,0
2017-01-21T02:19:45.036Z,0
2017-01-21T02:20:25.485Z,0
2017-01-21T02:21:05.991Z,0
2017-01-21T02:21:46.457Z,0
2017-01-21T02:22:26.931Z,0
2017-01-21T02:23:07.444Z,0
2017-01-21T02:23:47.939Z,0
2017-01-21T02:24:28.387Z,0
2017-01-21T02:25:08.902Z,0
2017-01-21T02:25:49.443Z,0
2017-01-21T02:26:29.875Z,0
2017-01-21T02:27:10.389Z,0
2017-01-21T02:27:50.841Z,0
2017-01-21T02:28:31.329Z,0
2017-01-21T02:29:11.778Z,0
2017-01-21T02:29:52.264Z,0
2017-01-21T02:30:32.754Z,0
2017-01-21T02:31:13.263Z,0
2017-01-21T02:31:53.766Z,0
2017-01-21T02:32:34.242Z,0
2017-01-21T02:33:14.709Z,0
2017-01-21T02:33:55.235Z,0
2017-01-21T02:34:35.772Z,0
2017-01-21T02:35:16.263Z,0
2017-01-21T02:35:56.747Z,0
2017-01-21T02:36:37.261Z,0
2017-01-21T02:37:17.749Z,0
2017-01-21T02:37:58.243Z,0
2017-01-21T02:38:38.724Z,0
2017-01-21T02:39:19.233Z,0
2017-01-21T02:39:59.720Z,0
2017-01-21T02:40:40.262Z,0
2017-01-21T02:41:20.705Z,0
2017-01-21T02:42:01.219Z,0
2017-01-21T02:42:41.694Z,0
2017-01-21T02:43:22.173Z,0
2017-01-21T02:44:02.658Z,0
2017-01-21T02:44:43.139Z,0
2017-01-21T02:45:23.641Z,0
2017-01-21T02:46:04.130Z,0
2017-01-21T02:46:44.600Z,0
2017-01-21T02:47:25.082Z,0
2017-01-21T02:48:05.586Z,0
2017-01-21T02:48:46.070Z,0
2017-01-21T02:49:26.565Z,0
2017-01-21T02:50:07.065Z,0
2017-01-21T02:50:47.576Z,0
2017-01-21T02:51:28.058Z,0
2017-01-21T02:52:08.545Z,0
2017-01-21T02:52:49.049Z,0
2017-01-21T02:53:29.545Z,0
2017-01-21T02:54:10.025Z,0
2017-01-21T02:54:50.538Z,0
2017-01-21T02:55:31.027Z,0
2017-01-21T02:56:11.489Z,0
2017-01-21T02:56:52.000Z,0
2017-01-21T02:57:32.480Z,0
2017-01-21T02:58:12.983Z,0
2017-01-21T02:58:53.489Z,0
2017-01-21T02:59:33.991Z,0
2017-01-21T03:00:14.523Z,0
2017-01-21T03:00:55.006Z,0
2017-01-21T03:01:35.508Z,0
2017-01-21T03:02:16.064Z,0
2017-01-21T03:02:56.527Z,0
2017-01-21T03:03:36.987Z,0
2017-01-21T03:04:17.506Z,0
2017-01-21T03:04:58.027Z,0
2017-01-21T03:05:38.494Z,0
2017-01-21T03:06:19.006Z,0
2017-01-21T03:06:59.490Z,0
2017-01-21T03:07:39.978Z,0
2017-01-21T03:08:20.466Z,0
2017-01-21T03:09:00.958Z,0
2017-01-21T03:09:41.452Z,0
2017-01-21T03:10:21.957Z,0
2017-01-21T03:11:02.508Z,0
2017-01-21T03:11:42.950Z,0
2017-01-21T03:12:23.437Z,0
2017-01-21T03:13:03.940Z,0
2017-01-21T03:13:44.410Z,0
2017-01-21T03:14:24.898Z,0
2017-01-21T03:15:05.390Z,0
2017-01-21T03:15:45.873Z,0
2017-01-21T03:16:26.396Z,0
2017-01-21T03:17:06.851Z,0
2017-01-21T03:17:47.332Z,0
2017-01-21T03:18:27.898Z,0
2017-01-21T03:19:08.289Z,0
2017-01-21T03:19:48.792Z,0
2017-01-21T03:20:29.273Z,0
2017-01-21T03:21:09.758Z,0
2017-01-21T03:21:50.246Z,0
2017-01-21T03:22:30.774Z,0
2017-01-21T03:23:11.268Z,0
2017-01-21T03:23:51.791Z,0
2017-01-21T03:24:32.267Z,0
2017-01-21T03:25:12.761Z,0
2017-01-21T03:25:53.249Z,0
2017-01-21T03:26:33.760Z,0
2017-01-21T03:27:14.254Z,0
2017-01-21T03:27:54.758Z,0
2017-01-21T03:28:35.232Z,0
2017-01-21T03:29:15.747Z,0
2017-01-21T03:29:56.257Z,0
2017-01-21T03:30:36.851Z,0
2017-01-21T03:31:17.333Z,0
2017-01-21T03:31:57.831Z,0
2017-01-21T03:32:38.280Z,0
2017-01-21T03:33:18.797Z,0
2017-01-21T03:33:59.264Z,0
2017-01-21T03:34:39.759Z,0
2017-01-21T03:35:20.258Z,0
2017-01-21T03:36:00.769Z,0
2017-01-21T03:36:41.348Z,0
2017-01-21T03:37:21.824Z,0
2017-01-21T03:38:02.339Z,0
2017-01-21T03:38:42.795Z,0
2017-01-21T03:39:23.296Z,0
2017-01-21T03:40:03.789Z,0
2017-01-21T03:40:44.291Z,0
2017-01-21T03:41:24.794Z,0
2017-01-21T03:42:05.275Z,0
2017-01-21T03:42:45.787Z,0
2017-01-21T03:43:26.264Z,0
2017-01-21T03:44:06.765Z,0
2017-01-21T03:44:47.282Z,0
2017-01-21T03:45:27.797Z,0
2017-01-21T03:46:08.318Z,0
2017-01-21T03:46:48.779Z,0
2017-01-21T03:47:29.277Z,0
2017-01-21T03:48:09.748Z,0
2017-01-21T03:48:50.239Z,0
2017-01-21T03:49:30.752Z,0
2017-01-21T03:50:11.204Z,0
2017-01-21T03:50:51.709Z,0
2017-01-21T03:51:32.267Z,0
2017-01-21T03:52:12.758Z,0
2017-01-21T03:52:53.245Z,0
2017-01-21T03:53:33.740Z,0
2017-01-21T03:54:14.235Z,0
2017-01-21T03:54:54.730Z,0
2017-01-21T03:55:35.220Z,0
2017-01-21T03:56:15.711Z,0
2017-01-21T03:56:56.238Z,0
2017-01-21T03:57:36.732Z,0
2017-01-21T03:58:17.217Z,0
2017-01-21T03:58:57.764Z,0
2017-01-21T03:59:38.219Z,0
2017-01-21T04:00:18.705Z,0
2017-01-21T04:00:59.212Z,0
2017-01-21T04:01:39.708Z,0
2017-01-21T04:02:20.198Z,0
2017-01-21T04:03:00.702Z,0
2017-01-21T04:03:41.182Z,0
2017-01-21T04:04:21.689Z,0
2017-01-21T04:05:02.213Z,0
2017-01-21T04:05:42.710Z,0
2017-01-21T04:06:23.202Z,0
2017-01-21T04:07:03.738Z,0
2017-01-21T04:07:44.177Z,0
2017-01-21T04:08:24.699Z,0
2017-01-21T04:09:05.153Z,0
2017-01-21T04:09:45.658Z,0
2017-01-21T04:10:26.123Z,0
2017-01-21T04:11:06.675Z,0
2017-01-21T04:13:35.256Z,0
2017-01-21T04:14:15.790Z,0
2017-01-21T04:14:56.241Z,0
2017-01-21T04:15:36.739Z,0
2017-01-21T04:16:17.281Z,0
2017-01-21T04:16:57.768Z,0
2017-01-21T04:17:38.246Z,0
2017-01-21T04:18:18.762Z,0
2017-01-21T04:18:59.227Z,0
2017-01-21T04:19:39.797Z,0
2017-01-21T04:20:20.246Z,0
2017-01-21T04:21:00.745Z,0
2017-01-21T04:21:41.245Z,0
2017-01-21T04:22:21.708Z,0
2017-01-21T04:23:02.213Z,0
2017-01-21T04:23:42.813Z,0
2017-01-21T04:24:23.320Z,0
2017-01-21T04:25:03.819Z,0
2017-01-21T04:25:44.312Z,0
2017-01-21T04:26:24.800Z,0
2017-01-21T04:27:05.304Z,0
2017-01-21T04:27:45.773Z,0
2017-01-21T04:28:26.270Z,0
2017-01-21T04:29:06.768Z,0
2017-01-21T04:29:47.270Z,0
2017-01-21T04:30:27.771Z,0
2017-01-21T04:31:08.255Z,0
2017-01-21T04:31:48.773Z,0
2017-01-21T04:32:29.238Z,0
2017-01-21T04:33:09.715Z,0
2017-01-21T04:33:50.213Z,0
2017-01-21T04:34:30.701Z,0
2017-01-21T04:35:11.217Z,0
2017-01-21T04:35:51.669Z,0
2017-01-21T04:36:32.201Z,0
2017-01-21T04:37:12.664Z,0
2017-01-21T04:37:53.138Z,0
2017-01-21T04:38:33.640Z,0
2017-01-21T04:39:14.115Z,0
2017-01-21T04:39:54.604Z,0
2017-01-21T04:40:35.082Z,0
2017-01-21T04:41:15.583Z,0
2017-01-21T04:41:56.075Z,0
2017-01-21T04:42:36.581Z,0
2017-01-21T04:43:17.069Z,0
2017-01-21T04:43:57.586Z,0
2017-01-21T04:44:38.064Z,0
2017-01-21T04:45:18.563Z,0
2017-01-21T04:45:59.059Z,0
2017-01-21T04:46:39.583Z,0
2017-01-21T04:47:20.027Z,0
2017-01-21T04:48:00.531Z,0
2017-01-21T04:48:41.025Z,0
2017-01-21T04:49:21.534Z,0
2017-01-21T04:50:02.013Z,0
2017-01-21T04:50:42.517Z,0
2017-01-21T04:51:23.034Z,0
2017-01-21T04:52:03.540Z,0
2017-01-21T04:52:44.004Z,0
2017-01-21T04:53:24.459Z,0
2017-01-21T04:54:04.981Z,0
2017-01-21T04:54:45.463Z,0
2017-01-21T04:55:25.969Z,0
2017-01-21T04:56:06.443Z,0
2017-01-21T04:56:46.946Z,0
2017-01-21T04:57:27.460Z,0
2017-01-21T04:58:07.949Z,0
2017-01-21T04:58:48.439Z,0
2017-01-21T04:59:28.939Z,0
2017-01-21T05:00:09.422Z,0
2017-01-21T05:00:49.904Z,0
2017-01-21T05:01:30.377Z,0
2017-01-21T05:02:10.905Z,0
2017-01-21T05:02:51.375Z,0
2017-01-21T05:03:31.879Z,0
2017-01-21T05:04:12.342Z,0
2017-01-21T05:04:52.874Z,0
2017-01-21T05:05:33.330Z,0
2017-01-21T05:06:13.834Z,0
2017-01-21T05:06:54.277Z,0
2017-01-21T05:07:34.770Z,0
2017-01-21T05:08:15.276Z,0
2017-01-21T05:08:55.763Z,0
2017-01-21T05:09:36.226Z,0
2017-01-21T05:10:16.714Z,0
2017-01-21T05:10:57.206Z,0
2017-01-21T05:11:37.698Z,0
2017-01-21T05:12:18.295Z,0
2017-01-21T05:12:58.772Z,0
2017-01-21T05:13:39.255Z,0
2017-01-21T05:14:19.772Z,0
2017-01-21T05:15:00.226Z,0
2017-01-21T05:15:40.719Z,0
2017-01-21T05:16:21.217Z,0
2017-01-21T05:17:01.700Z,0
2017-01-21T05:17:42.241Z,0
2017-01-21T05:18:22.706Z,0
2017-01-21T05:19:03.175Z,0
2017-01-21T05:19:43.684Z,0
2017-01-21T05:20:24.193Z,0
2017-01-21T05:21:04.667Z,0
2017-01-21T05:21:45.152Z,0
2017-01-21T05:22:25.665Z,0
2017-01-21T05:23:06.103Z,0
2017-01-21T05:23:46.597Z,0
2017-01-21T05:24:27.127Z,0
2017-01-21T05:25:07.609Z,0
2017-01-21T05:25:48.096Z,0
2017-01-21T05:26:28.596Z,0
2017-01-21T05:27:09.045Z,0
2017-01-21T05:27:49.563Z,0
2017-01-21T05:28:30.027Z,0
2017-01-21T05:29:10.522Z,0
2017-01-21T05:29:50.999Z,0
2017-01-21T05:30:31.462Z,0
2017-01-21T05:31:11.946Z,0
2017-01-21T05:31:52.440Z,0
2017-01-21T05:32:32.956Z,0
2017-01-21T05:33:13.444Z,0
2017-01-21T05:33:53.914Z,0
2017-01-21T05:34:34.391Z,0
2017-01-21T05:35:14.906Z,0
2017-01-21T05:35:55.363Z,0
2017-01-21T05:36:35.854Z,0
2017-01-21T05:37:16.369Z,0
2017-01-21T05:37:56.867Z,0
2017-01-21T05:38:37.364Z,0
2017-01-21T05:39:17.856Z,0
2017-01-21T05:39:58.385Z,0
2017-01-21T05:40:38.804Z,0
2017-01-21T05:41:19.285Z,0
2017-01-21T05:41:59.822Z,0
2017-01-21T05:42:40.265Z,0
2017-01-21T05:43:20.769Z,0
2017-01-21T05:44:01.276Z,0
2017-01-21T05:44:41.782Z,0
2017-01-21T05:45:22.281Z,0
2017-01-21T05:46:02.789Z,0
2017-01-21T05:46:43.317Z,0
2017-01-21T05:47:23.821Z,0
2017-01-21T05:48:04.314Z,0
2017-01-21T05:48:44.815Z,0
2017-01-21T05:49:25.326Z,0
2017-01-21T05:50:05.827Z,0
2017-01-21T05:50:46.279Z,0
2017-01-21T05:51:26.798Z,0
2017-01-21T05:52:07.280Z,0
2017-01-21T05:52:47.796Z,0
2017-01-21T05:53:28.295Z,0
2017-01-21T05:54:08.789Z,0
2017-01-21T05:54:49.272Z,0
2017-01-21T05:55:29.748Z,0
2017-01-21T05:56:10.255Z,0
2017-01-21T05:56:50.726Z,0
2017-01-21T05:57:31.249Z,0
2017-01-21T05:58:11.694Z,0
2017-01-21T05:58:52.138Z,0
2017-01-21T05:59:32.646Z,0
2017-01-21T06:00:13.160Z,0
2017-01-21T06:00:53.659Z,0
2017-01-21T06:01:34.136Z,0
2017-01-21T06:02:14.615Z,0
2017-01-21T06:02:55.118Z,0
2017-01-21T06:03:35.611Z,0
2017-01-21T06:04:16.152Z,0
2017-01-21T06:04:56.608Z,0
2017-01-21T06:05:37.093Z,0
2017-01-21T06:06:17.593Z,0
2017-01-21T06:06:58.113Z,0
2017-01-21T06:07:38.608Z,0
2017-01-21T06:08:19.086Z,0
2017-01-21T06:08:59.587Z,0
2017-01-21T06:09:40.062Z,0
2017-01-21T06:10:20.541Z,0
2017-01-21T06:11:01.068Z,0
2017-01-21T06:11:41.600Z,0
2017-01-21T06:12:22.036Z,0
2017-01-21T06:13:02.526Z,0
2017-01-21T06:13:43.020Z,0
2017-01-21T06:14:23.526Z,0
2017-01-21T06:15:04.011Z,0
2017-01-21T06:15:44.523Z,0
2017-01-21T06:16:25.003Z,0
2017-01-21T06:17:05.516Z,0
2017-01-21T06:17:46.003Z,0
2017-01-21T06:18:26.511Z,0
2017-01-21T06:19:07.012Z,0
2017-01-21T06:19:47.481Z,0
2017-01-21T06:20:27.980Z,0
2017-01-21T06:21:08.476Z,0
2017-01-21T06:21:48.987Z,0
2017-01-21T06:22:29.456Z,0
2017-01-21T06:23:09.994Z,0
2017-01-21T06:23:50.455Z,0
2017-01-21T06:24:30.954Z,0
2017-01-21T06:25:11.491Z,0
2017-01-21T06:25:51.993Z,0
2017-01-21T06:26:32.513Z,0
2017-01-21T06:27:13.055Z,0
2017-01-21T06:27:53.487Z,0
2017-01-21T06:28:33.981Z,0
2017-01-21T06:29:14.494Z,0
2017-01-21T06:29:54.961Z,0
2017-01-21T06:30:35.486Z,0
2017-01-21T06:31:15.948Z,0
2017-01-21T06:31:56.444Z,0
2017-01-21T06:32:36.910Z,0
2017-01-21T06:33:17.465Z,0
2017-01-21T06:33:57.916Z,0
2017-01-21T06:34:38.442Z,0
2017-01-21T06:35:18.912Z,0
2017-01-21T06:35:59.393Z,0
2017-01-21T06:36:39.918Z,0
2017-01-21T06:37:20.382Z,4
2017-01-21T06:38:00.902Z,4
2017-01-21T06:38:41.335Z,0
2017-01-21T06:39:21.836Z,0
2017-01-21T06:40:02.299Z,0
2017-01-21T06:40:42.790Z,4
2017-01-21T06:41:23.330Z,4
2017-01-21T06:42:03.822Z,0
2017-01-21T06:42:44.307Z,4
2017-01-21T06:43:24.807Z,4
2017-01-21T06:44:05.281Z,4
2017-01-21T06:44:45.777Z,4
2017-01-21T06:45:26.226Z,4
2017-01-21T06:46:06.708Z,4
2017-01-21T06:48:35.184Z,8
2017-01-21T06:49:15.681Z,8
2017-01-21T06:49:56.179Z,8
2017-01-21T06:50:36.684Z,12
2017-01-21T06:51:17.173Z,12
2017-01-21T06:51:57.655Z,12
2017-01-21T06:52:38.156Z,16
2017-01-21T06:53:18.630Z,16
2017-01-21T06:53:59.111Z,20
2017-01-21T06:54:39.582Z,20
2017-01-21T06:55:20.076Z,24
2017-01-21T06:56:00.551Z,24
2017-01-21T06:56:41.034Z,28
2017-01-21T06:57:21.520Z,28
2017-01-21T06:58:02.031Z,28
2017-01-21T06:58:42.528Z,36
2017-01-21T06:59:23.046Z,36
2017-01-21T07:00:03.492Z,40
2017-01-21T07:00:44.008Z,44
2017-01-21T07:01:24.506Z,48
2017-01-21T07:02:05.006Z,52
2017-01-21T07:02:45.485Z,56
2017-01-21T07:03:25.973Z,60
2017-01-21T07:04:06.479Z,64
2017-01-21T07:04:46.938Z,68
2017-01-21T07:05:27.414Z,72
2017-01-21T07:06:07.893Z,80
2017-01-21T07:06:48.397Z,84
2017-01-21T07:07:28.874Z,88
2017-01-21T07:08:09.343Z,92
2017-01-21T07:08:49.848Z,100
2017-01-21T07:09:30.308Z,108
2017-01-21T07:10:10.816Z,116
2017-01-21T07:10:51.293Z,120
2017-01-21T07:11:31.774Z,128
2017-01-21T07:12:12.326Z,136
2017-01-21T07:12:52.752Z,144
2017-01-21T07:13:33.247Z,148
2017-01-21T07:14:13.782Z,160
2017-01-21T07:14:54.263Z,164
2017-01-21T07:15:34.769Z,172
2017-01-21T07:16:15.275Z,180
2017-01-21T07:16:55.753Z,188
2017-01-21T07:17:36.262Z,200
2017-01-21T07:18:16.766Z,208
2017-01-21T07:18:58.082Z,216
2017-01-21T07:19:37.873Z,224
2017-01-21T07:20:18.294Z,232
2017-01-21T07:20:58.830Z,244
2017-01-21T07:21:39.287Z,252
2017-01-21T07:22:19.777Z,264
2017-01-21T07:23:00.270Z,272
2017-01-21T07:23:40.855Z,280
2017-01-21T07:24:21.344Z,296
2017-01-21T07:25:01.859Z,304
2017-01-21T07:25:42.320Z,316
2017-01-21T07:26:22.803Z,324
2017-01-21T07:27:03.270Z,336
2017-01-21T07:27:43.744Z,344
2017-01-21T07:28:24.169Z,356
2017-01-21T07:29:04.645Z,372
2017-01-21T07:29:45.146Z,380
2017-01-21T07:30:25.631Z,392
2017-01-21T07:31:06.151Z,404
2017-01-21T07:31:46.589Z,416
2017-01-21T07:32:27.069Z,424
2017-01-21T07:33:07.567Z,436
2017-01-21T07:33:48.053Z,452
2017-01-21T07:34:28.527Z,464
2017-01-21T07:35:09.014Z,476
2017-01-21T07:35:49.491Z,484
2017-01-21T07:36:30.077Z,496
2017-01-21T07:37:11.345Z,512
2017-01-21T07:37:51.666Z,520
2017-01-21T07:38:32.086Z,532
2017-01-21T07:39:12.870Z,544
2017-01-21T07:39:53.385Z,556
2017-01-21T07:40:34.034Z,572
2017-01-21T07:41:14.539Z,584
2017-01-21T07:41:55.014Z,596
2017-01-21T07:42:35.528Z,604
2017-01-21T07:43:16.028Z,616
2017-01-21T07:43:56.571Z,632
2017-01-21T07:44:37.003Z,644
2017-01-21T07:45:17.528Z,652
2017-01-21T07:45:58.046Z,668
2017-01-21T07:46:38.501Z,676
2017-01-21T07:47:18.988Z,692
2017-01-21T07:48:00.087Z,700
2017-01-21T07:48:40.614Z,708
2017-01-21T07:49:21.201Z,724
2017-01-21T07:50:01.636Z,732
2017-01-21T07:50:42.398Z,744
2017-01-21T07:51:22.790Z,756
2017-01-21T07:52:03.265Z,764
2017-01-21T07:52:43.803Z,780
2017-01-21T07:53:24.286Z,792
2017-01-21T07:54:04.852Z,800
2017-01-21T07:54:45.438Z,808
2017-01-21T07:55:26.198Z,820
2017-01-21T07:56:06.505Z,836
2017-01-21T07:56:46.976Z,848
2017-01-21T07:57:27.411Z,860
2017-01-21T07:58:07.905Z,872
2017-01-21T07:58:48.604Z,884
2017-01-21T07:59:29.464Z,892
2017-01-21T08:00:09.954Z,904
2017-01-21T08:00:50.579Z,912
2017-01-21T08:01:31.069Z,924
2017-01-21T08:02:11.567Z,932
2017-01-21T08:02:52.071Z,944
2017-01-21T08:03:32.578Z,956
2017-01-21T08:04:13.065Z,964
2017-01-21T08:04:53.523Z,972
2017-01-21T08:05:34.050Z,984
2017-01-21T08:06:14.534Z,996
2017-01-21T08:06:54.986Z,1004
2017-01-21T08:07:35.528Z,1016
2017-01-21T08:08:16.018Z,1024
2017-01-21T08:08:56.621Z,1032
2017-01-21T08:09:37.219Z,1044
2017-01-21T08:10:17.718Z,1052
2017-01-21T08:10:58.238Z,1064
2017-01-21T08:11:38.678Z,1072
2017-01-21T08:12:19.156Z,1084
2017-01-21T08:12:59.797Z,1092
2017-01-21T08:13:40.247Z,1100
2017-01-21T08:14:20.727Z,1108
2017-01-21T08:15:01.278Z,1116
2017-01-21T08:15:41.906Z,1120
2017-01-21T08:16:22.394Z,1128
2017-01-21T08:17:02.829Z,1140
2017-01-21T08:17:43.411Z,1148
2017-01-21T08:18:23.959Z,1156
2017-01-21T08:19:04.418Z,1160
2017-01-21T08:22:51.489Z,1204
2017-01-21T08:23:32.173Z,1216
2017-01-21T08:24:12.911Z,1224
2017-01-21T08:24:53.499Z,1232
2017-01-21T08:25:34.014Z,1236
2017-01-21T08:26:14.482Z,1240
2017-01-21T08:26:54.975Z,1248
2017-01-21T08:27:35.439Z,1256
2017-01-21T08:28:15.948Z,1264
2017-01-21T08:28:56.682Z,1272
2017-01-21T08:29:37.194Z,1280
2017-01-21T08:30:17.716Z,1288
2017-01-21T08:30:58.577Z,1292
2017-01-21T08:31:39.175Z,1300
2017-01-21T08:32:19.614Z,1304
2017-01-21T08:33:01.109Z,1312
2017-01-21T08:33:41.937Z,1316
2017-01-21T08:34:22.452Z,1324
2017-01-21T08:35:03.094Z,1332
2017-01-21T08:35:43.644Z,1340
2017-01-21T08:36:24.101Z,1348
2017-01-21T08:37:04.632Z,1356
2017-01-21T08:37:45.126Z,1364
2017-01-21T08:38:25.878Z,1368
2017-01-21T08:39:06.485Z,1376
2017-01-21T08:39:47.193Z,1376
2017-01-21T08:40:27.748Z,1380
2017-01-21T08:41:08.286Z,1388
2017-01-21T08:41:48.803Z,1392
2017-01-21T08:42:29.308Z,1396
2017-01-21T08:43:09.801Z,1400
2017-01-21T08:43:50.439Z,1404
2017-01-21T08:44:31.218Z,1408
2017-01-21T08:45:12.186Z,1412
2017-01-21T08:45:53.689Z,1424
2017-01-21T08:46:34.157Z,1424
2017-01-21T08:47:15.341Z,1428
2017-01-21T08:47:56.029Z,1440
2017-01-21T08:48:36.959Z,1444
2017-01-21T08:49:17.375Z,1448
2017-01-21T08:49:57.986Z,1456
2017-01-21T08:50:40.355Z,1464
2017-01-21T08:51:21.605Z,1464
2017-01-21T08:52:04.390Z,1468
2017-01-21T08:52:46.099Z,1472
2017-01-21T08:53:27.640Z,1472
2017-01-21T08:54:07.974Z,1476
2017-01-21T08:54:48.981Z,1476
2017-01-21T08:55:29.779Z,1484
2017-01-21T08:56:10.203Z,1484
2017-01-21T08:56:50.819Z,1492
2017-01-21T08:57:31.360Z,1496
2017-01-21T08:58:12.041Z,1496
2017-01-21T08:58:53.012Z,1508
2017-01-21T08:59:33.736Z,1512
2017-01-21T09:00:14.975Z,1516
2017-01-21T09:00:56.277Z,1524
2017-01-21T09:01:36.945Z,1528
2017-01-21T09:02:18.271Z,1528
2017-01-21T09:02:58.549Z,1532
2017-01-21T09:03:39.593Z,1532
2017-01-21T09:04:20.122Z,1532
2017-01-21T09:05:03.922Z,1536
2017-01-21T09:05:44.411Z,1536
2017-01-21T09:06:25.519Z,1540
2017-01-21T09:07:06.228Z,1540
2017-01-21T09:07:46.881Z,1544
2017-01-21T09:08:27.364Z,1544
2017-01-21T09:09:07.930Z,1552
2017-01-21T09:09:48.469Z,1552
2017-01-21T09:10:28.888Z,1556
2017-01-21T09:11:09.436Z,1560
2017-01-21T09:11:50.141Z,1560
2017-01-21T09:12:30.564Z,1564
2017-01-21T09:13:11.012Z,1568
2017-01-21T09:13:51.623Z,1572
2017-01-21T09:14:32.292Z,1572
2017-01-21T09:15:13.143Z,1580
2017-01-21T09:15:56.431Z,1576
2017-01-21T09:16:40.871Z,1580
2017-01-21T09:17:20.993Z,1588
2017-01-21T09:19:49.575Z,1600
2017-01-21T09:20:29.934Z,1604
2017-01-21T09:21:10.480Z,1608
2017-01-21T09:21:50.995Z,1612
2017-01-21T09:22:31.693Z,1612
2017-01-21T09:23:12.069Z,1616
2017-01-21T09:23:53.328Z,1620
2017-01-21T09:24:33.980Z,1620
2017-01-21T09:25:14.442Z,1620
2017-01-21T09:25:54.940Z,1628
2017-01-21T09:26:35.436Z,1636
2017-01-21T09:27:16.041Z,1640
2017-01-21T09:27:56.658Z,1644
2017-01-21T09:28:37.215Z,1644
2017-01-21T09:29:17.716Z,1644
2017-01-21T09:29:58.228Z,1648
2017-01-21T09:30:39.131Z,1644
2017-01-21T09:31:21.096Z,1640
2017-01-21T09:32:04.799Z,1644
2017-01-21T09:32:45.330Z,1644
2017-01-21T09:33:28.469Z,1648
2017-01-21T09:34:08.477Z,1652
2017-01-21T09:34:52.156Z,1656
2017-01-21T09:35:32.655Z,1660
2017-01-21T09:36:15.529Z,1660
2017-01-21T09:36:54.428Z,1664
2017-01-21T09:37:35.022Z,1660
2017-01-21T09:38:15.831Z,1660
2017-01-21T09:38:57.243Z,1664
2017-01-21T09:39:40.335Z,1664
2017-01-21T09:40:23.493Z,1668
2017-01-21T09:41:03.489Z,1660
2017-01-21T09:41:44.279Z,1656
2017-01-21T09:42:25.136Z,1660
2017-01-21T09:43:05.685Z,1656
2017-01-21T09:43:47.053Z,1656
2017-01-21T09:44:34.042Z,1660
2017-01-21T09:45:15.940Z,1656
2017-01-21T09:49:47.646Z,1684
2017-01-21T09:50:29.687Z,1688
2017-01-21T09:51:10.032Z,1692
2017-01-21T09:51:51.609Z,1684
2017-01-21T09:52:32.525Z,1688
2017-01-21T09:53:15.789Z,1700
2017-01-21T09:53:56.206Z,1688
2017-01-21T09:54:38.024Z,1704
2017-01-21T09:55:19.484Z,1704
2017-01-21T09:56:02.482Z,1696
2017-01-21T09:56:43.752Z,1700